sensor_id;sensor_type;location;lat;lon;timestamp;P1;durP1;ratioP1;P2;durP2;ratioP2
34035;SDS011;63481;52.588;22.472;2023-02-16T00:00:25;235.40;;;67.00;;
34035;SDS011;63481;52.588;22.472;2023-02-16T00:01:38;231.00;;;64.70;;
34035;SDS011;63481;52.588;22.472;2023-02-16T00:02:31;243.00;;;67.50;;
34035;SDS011;63481;52.588;22.472;2023-02-16T00:03:24;228.10;;;67.00;;
34035;SDS011;63481;52.588;22.472;2023-02-16T00:04:20;239.30;;;67.10;;
34035;SDS011;63481;52.588;22.472;2023-02-16T00:05:24;251.50;;;67.00;;
34035;SDS011;63481;52.588;22.472;2023-02-16T00:06:17;217.90;;;65.10;;
34035;SDS011;63481;52.588;22.472;2023-02-16T00:07:11;254.50;;;67.30;;
34035;SDS011;63481;52.588;22.472;2023-02-16T00:08:04;246.40;;;67.40;;
34035;SDS011;63481;52.588;22.472;2023-02-16T00:08:57;235.00;;;69.10;;
34035;SDS011;63481;52.588;22.472;2023-02-16T00:09:50;244.30;;;70.80;;
34035;SDS011;63481;52.588;22.472;2023-02-16T00:10:44;264.70;;;71.20;;
34035;SDS011;63481;52.588;22.472;2023-02-16T00:11:57;250.20;;;70.80;;
34035;SDS011;63481;52.588;22.472;2023-02-16T00:13:20;262.90;;;69.40;;
34035;SDS011;63481;52.588;22.472;2023-02-16T00:14:39;260.80;;;69.30;;
34035;SDS011;63481;52.588;22.472;2023-02-16T00:15:32;263.40;;;72.00;;
34035;SDS011;63481;52.588;22.472;2023-02-16T00:16:26;280.60;;;77.50;;
34035;SDS011;63481;52.588;22.472;2023-02-16T00:17:19;281.80;;;75.80;;
34035;SDS011;63481;52.588;22.472;2023-02-16T00:18:14;275.00;;;76.90;;
34035;SDS011;63481;52.588;22.472;2023-02-16T00:19:33;272.00;;;75.20;;
34035;SDS011;63481;52.588;22.472;2023-02-16T00:20:26;263.10;;;73.70;;
34035;SDS011;63481;52.588;22.472;2023-02-16T00:21:21;292.30;;;78.50;;
34035;SDS011;63481;52.588;22.472;2023-02-16T00:22:15;290.00;;;79.30;;
34035;SDS011;63481;52.588;22.472;2023-02-16T00:23:08;285.60;;;80.00;;
34035;SDS011;63481;52.588;22.472;2023-02-16T00:24:01;295.20;;;79.40;;
34035;SDS011;63481;52.588;22.472;2023-02-16T00:24:55;277.10;;;79.20;;
34035;SDS011;63481;52.588;22.472;2023-02-16T00:25:48;295.90;;;79.20;;
34035;SDS011;63481;52.588;22.472;2023-02-16T00:26:42;292.60;;;80.70;;
34035;SDS011;63481;52.588;22.472;2023-02-16T00:27:36;301.50;;;80.90;;
34035;SDS011;63481;52.588;22.472;2023-02-16T00:28:29;299.30;;;79.40;;
34035;SDS011;63481;52.588;22.472;2023-02-16T00:29:25;308.00;;;81.30;;
34035;SDS011;63481;52.588;22.472;2023-02-16T00:30:19;297.20;;;79.90;;
34035;SDS011;63481;52.588;22.472;2023-02-16T00:31:16;306.20;;;80.80;;
34035;SDS011;63481;52.588;22.472;2023-02-16T00:32:11;301.20;;;79.90;;
34035;SDS011;63481;52.588;22.472;2023-02-16T00:33:18;314.40;;;79.40;;
34035;SDS011;63481;52.588;22.472;2023-02-16T00:35:26;277.90;;;73.30;;
34035;SDS011;63481;52.588;22.472;2023-02-16T00:36:20;295.50;;;77.10;;
34035;SDS011;63481;52.588;22.472;2023-02-16T00:37:13;280.50;;;75.70;;
34035;SDS011;63481;52.588;22.472;2023-02-16T00:38:06;273.20;;;75.10;;
34035;SDS011;63481;52.588;22.472;2023-02-16T00:39:00;287.10;;;78.20;;
34035;SDS011;63481;52.588;22.472;2023-02-16T00:39:53;283.80;;;76.30;;
34035;SDS011;63481;52.588;22.472;2023-02-16T00:40:46;287.10;;;78.10;;
34035;SDS011;63481;52.588;22.472;2023-02-16T00:41:39;281.20;;;76.90;;
34035;SDS011;63481;52.588;22.472;2023-02-16T00:42:45;279.50;;;74.50;;
34035;SDS011;63481;52.588;22.472;2023-02-16T00:43:39;281.20;;;74.10;;
34035;SDS011;63481;52.588;22.472;2023-02-16T00:44:48;293.90;;;75.90;;
34035;SDS011;63481;52.588;22.472;2023-02-16T00:45:46;285.20;;;75.80;;
34035;SDS011;63481;52.588;22.472;2023-02-16T00:46:41;271.00;;;75.00;;
34035;SDS011;63481;52.588;22.472;2023-02-16T00:47:39;279.20;;;76.10;;
34035;SDS011;63481;52.588;22.472;2023-02-16T00:48:34;272.40;;;75.40;;
34035;SDS011;63481;52.588;22.472;2023-02-16T00:49:26;269.60;;;78.40;;
34035;SDS011;63481;52.588;22.472;2023-02-16T00:50:26;272.80;;;75.30;;
34035;SDS011;63481;52.588;22.472;2023-02-16T00:51:21;276.50;;;76.00;;
34035;SDS011;63481;52.588;22.472;2023-02-16T00:53:22;296.80;;;79.20;;
34035;SDS011;63481;52.588;22.472;2023-02-16T00:54:15;307.60;;;81.10;;
34035;SDS011;63481;52.588;22.472;2023-02-16T00:55:09;318.60;;;80.20;;
34035;SDS011;63481;52.588;22.472;2023-02-16T00:56:11;299.40;;;78.80;;
34035;SDS011;63481;52.588;22.472;2023-02-16T00:57:16;286.60;;;77.90;;
34035;SDS011;63481;52.588;22.472;2023-02-16T00:58:18;288.90;;;77.20;;
34035;SDS011;63481;52.588;22.472;2023-02-16T00:59:17;266.80;;;78.20;;
34035;SDS011;63481;52.588;22.472;2023-02-16T01:00:16;303.60;;;80.70;;
34035;SDS011;63481;52.588;22.472;2023-02-16T01:01:13;276.40;;;77.00;;
34035;SDS011;63481;52.588;22.472;2023-02-16T01:02:08;295.40;;;79.00;;
34035;SDS011;63481;52.588;22.472;2023-02-16T01:03:04;292.30;;;78.80;;
34035;SDS011;63481;52.588;22.472;2023-02-16T01:04:02;279.80;;;78.10;;
34035;SDS011;63481;52.588;22.472;2023-02-16T01:04:57;264.40;;;79.20;;
34035;SDS011;63481;52.588;22.472;2023-02-16T01:05:49;293.40;;;81.70;;
34035;SDS011;63481;52.588;22.472;2023-02-16T01:07:07;295.00;;;77.20;;
34035;SDS011;63481;52.588;22.472;2023-02-16T01:08:22;285.20;;;76.60;;
34035;SDS011;63481;52.588;22.472;2023-02-16T01:09:33;276.80;;;76.60;;
34035;SDS011;63481;52.588;22.472;2023-02-16T01:10:44;270.80;;;73.60;;
34035;SDS011;63481;52.588;22.472;2023-02-16T01:11:46;263.50;;;73.50;;
34035;SDS011;63481;52.588;22.472;2023-02-16T01:12:38;300.80;;;79.00;;
34035;SDS011;63481;52.588;22.472;2023-02-16T01:13:32;301.60;;;80.40;;
34035;SDS011;63481;52.588;22.472;2023-02-16T01:14:30;288.30;;;75.80;;
34035;SDS011;63481;52.588;22.472;2023-02-16T01:15:25;286.20;;;79.10;;
34035;SDS011;63481;52.588;22.472;2023-02-16T01:16:19;302.50;;;79.70;;
34035;SDS011;63481;52.588;22.472;2023-02-16T01:17:14;296.00;;;80.50;;
34035;SDS011;63481;52.588;22.472;2023-02-16T01:18:07;279.70;;;78.30;;
34035;SDS011;63481;52.588;22.472;2023-02-16T01:19:00;310.10;;;80.80;;
34035;SDS011;63481;52.588;22.472;2023-02-16T01:19:52;298.00;;;81.10;;
34035;SDS011;63481;52.588;22.472;2023-02-16T01:20:45;289.50;;;80.50;;
34035;SDS011;63481;52.588;22.472;2023-02-16T01:21:39;304.80;;;83.00;;
34035;SDS011;63481;52.588;22.472;2023-02-16T01:22:31;327.60;;;85.00;;
34035;SDS011;63481;52.588;22.472;2023-02-16T01:23:25;315.90;;;83.60;;
34035;SDS011;63481;52.588;22.472;2023-02-16T01:24:18;299.30;;;80.30;;
34035;SDS011;63481;52.588;22.472;2023-02-16T01:25:14;303.20;;;80.70;;
34035;SDS011;63481;52.588;22.472;2023-02-16T01:26:13;290.80;;;79.60;;
34035;SDS011;63481;52.588;22.472;2023-02-16T01:27:11;307.00;;;80.40;;
34035;SDS011;63481;52.588;22.472;2023-02-16T01:28:37;297.20;;;80.30;;
34035;SDS011;63481;52.588;22.472;2023-02-16T01:29:27;279.00;;;75.70;;
34035;SDS011;63481;52.588;22.472;2023-02-16T01:30:21;279.00;;;75.50;;
34035;SDS011;63481;52.588;22.472;2023-02-16T01:31:15;293.00;;;79.90;;
34035;SDS011;63481;52.588;22.472;2023-02-16T01:32:09;280.20;;;78.80;;
34035;SDS011;63481;52.588;22.472;2023-02-16T01:33:03;320.50;;;81.20;;
34035;SDS011;63481;52.588;22.472;2023-02-16T01:33:56;305.70;;;81.20;;
34035;SDS011;63481;52.588;22.472;2023-02-16T01:34:49;284.10;;;79.50;;
34035;SDS011;63481;52.588;22.472;2023-02-16T01:35:41;299.80;;;81.90;;
34035;SDS011;63481;52.588;22.472;2023-02-16T01:36:39;300.20;;;80.30;;
34035;SDS011;63481;52.588;22.472;2023-02-16T01:37:34;296.30;;;79.40;;
34035;SDS011;63481;52.588;22.472;2023-02-16T01:38:27;290.80;;;78.40;;
34035;SDS011;63481;52.588;22.472;2023-02-16T01:39:20;298.90;;;81.50;;
34035;SDS011;63481;52.588;22.472;2023-02-16T01:40:29;296.70;;;78.70;;
34035;SDS011;63481;52.588;22.472;2023-02-16T01:42:41;286.40;;;78.30;;
34035;SDS011;63481;52.588;22.472;2023-02-16T01:43:45;273.40;;;75.70;;
34035;SDS011;63481;52.588;22.472;2023-02-16T01:45:38;264.20;;;69.10;;
34035;SDS011;63481;52.588;22.472;2023-02-16T01:48:04;273.70;;;72.50;;
34035;SDS011;63481;52.588;22.472;2023-02-16T01:49:04;299.60;;;77.70;;
34035;SDS011;63481;52.588;22.472;2023-02-16T01:49:57;279.90;;;77.70;;
34035;SDS011;63481;52.588;22.472;2023-02-16T01:51:50;286.40;;;79.10;;
34035;SDS011;63481;52.588;22.472;2023-02-16T01:54:11;288.30;;;77.40;;
34035;SDS011;63481;52.588;22.472;2023-02-16T01:56:16;300.30;;;79.80;;
34035;SDS011;63481;52.588;22.472;2023-02-16T01:57:32;279.20;;;75.40;;
34035;SDS011;63481;52.588;22.472;2023-02-16T01:58:47;269.60;;;75.00;;
34035;SDS011;63481;52.588;22.472;2023-02-16T02:02:19;292.80;;;77.30;;
34035;SDS011;63481;52.588;22.472;2023-02-16T02:03:15;288.40;;;74.90;;
34035;SDS011;63481;52.588;22.472;2023-02-16T02:06:11;261.70;;;72.40;;
34035;SDS011;63481;52.588;22.472;2023-02-16T02:07:09;282.30;;;74.80;;
34035;SDS011;63481;52.588;22.472;2023-02-16T02:09:34;278.40;;;74.60;;
34035;SDS011;63481;52.588;22.472;2023-02-16T02:11:53;282.40;;;77.40;;
34035;SDS011;63481;52.588;22.472;2023-02-16T02:13:02;282.20;;;73.00;;
34035;SDS011;63481;52.588;22.472;2023-02-16T02:15:24;268.80;;;73.40;;
34035;SDS011;63481;52.588;22.472;2023-02-16T02:16:23;280.90;;;76.10;;
34035;SDS011;63481;52.588;22.472;2023-02-16T02:17:18;288.30;;;77.60;;
34035;SDS011;63481;52.588;22.472;2023-02-16T02:18:12;292.30;;;80.90;;
34035;SDS011;63481;52.588;22.472;2023-02-16T02:19:05;302.50;;;79.70;;
34035;SDS011;63481;52.588;22.472;2023-02-16T02:23:17;275.80;;;73.50;;
34035;SDS011;63481;52.588;22.472;2023-02-16T02:27:26;256.60;;;71.70;;
34035;SDS011;63481;52.588;22.472;2023-02-16T02:28:25;261.90;;;72.50;;
34035;SDS011;63481;52.588;22.472;2023-02-16T02:34:03;265.30;;;73.50;;
34035;SDS011;63481;52.588;22.472;2023-02-16T02:36:30;276.50;;;75.80;;
34035;SDS011;63481;52.588;22.472;2023-02-16T02:40:10;245.30;;;74.20;;
34035;SDS011;63481;52.588;22.472;2023-02-16T02:41:23;257.90;;;74.50;;
34035;SDS011;63481;52.588;22.472;2023-02-16T02:42:47;271.10;;;73.60;;
34035;SDS011;63481;52.588;22.472;2023-02-16T02:43:51;270.00;;;75.00;;
34035;SDS011;63481;52.588;22.472;2023-02-16T02:44:53;269.80;;;74.90;;
34035;SDS011;63481;52.588;22.472;2023-02-16T02:45:52;267.60;;;78.30;;
34035;SDS011;63481;52.588;22.472;2023-02-16T02:46:49;285.10;;;77.10;;
34035;SDS011;63481;52.588;22.472;2023-02-16T02:47:44;250.70;;;77.10;;
34035;SDS011;63481;52.588;22.472;2023-02-16T02:48:39;290.80;;;76.80;;
34035;SDS011;63481;52.588;22.472;2023-02-16T02:49:32;283.40;;;78.50;;
34035;SDS011;63481;52.588;22.472;2023-02-16T02:50:39;281.80;;;79.50;;
34035;SDS011;63481;52.588;22.472;2023-02-16T02:51:59;285.30;;;76.40;;
34035;SDS011;63481;52.588;22.472;2023-02-16T02:53:00;261.60;;;73.40;;
34035;SDS011;63481;52.588;22.472;2023-02-16T02:55:26;279.30;;;74.50;;
34035;SDS011;63481;52.588;22.472;2023-02-16T02:56:42;268.10;;;73.80;;
34035;SDS011;63481;52.588;22.472;2023-02-16T02:58:00;244.10;;;71.40;;
34035;SDS011;63481;52.588;22.472;2023-02-16T02:59:12;267.50;;;73.20;;
34035;SDS011;63481;52.588;22.472;2023-02-16T03:01:42;260.50;;;73.10;;
34035;SDS011;63481;52.588;22.472;2023-02-16T03:02:39;269.10;;;72.10;;
34035;SDS011;63481;52.588;22.472;2023-02-16T03:03:35;274.50;;;76.50;;
34035;SDS011;63481;52.588;22.472;2023-02-16T03:04:34;260.50;;;75.00;;
34035;SDS011;63481;52.588;22.472;2023-02-16T03:05:28;264.10;;;74.70;;
34035;SDS011;63481;52.588;22.472;2023-02-16T03:06:25;270.00;;;77.30;;
34035;SDS011;63481;52.588;22.472;2023-02-16T03:07:21;268.90;;;79.60;;
34035;SDS011;63481;52.588;22.472;2023-02-16T03:08:39;276.50;;;78.40;;
34035;SDS011;63481;52.588;22.472;2023-02-16T03:09:35;267.30;;;77.80;;
34035;SDS011;63481;52.588;22.472;2023-02-16T03:10:28;271.30;;;78.40;;
34035;SDS011;63481;52.588;22.472;2023-02-16T03:11:42;279.10;;;77.50;;
34035;SDS011;63481;52.588;22.472;2023-02-16T03:12:56;275.10;;;74.30;;
34035;SDS011;63481;52.588;22.472;2023-02-16T03:13:56;283.00;;;77.30;;
34035;SDS011;63481;52.588;22.472;2023-02-16T03:14:53;276.40;;;78.30;;
34035;SDS011;63481;52.588;22.472;2023-02-16T03:15:54;297.30;;;81.80;;
34035;SDS011;63481;52.588;22.472;2023-02-16T03:16:53;270.10;;;79.50;;
34035;SDS011;63481;52.588;22.472;2023-02-16T03:18:08;275.20;;;74.80;;
34035;SDS011;63481;52.588;22.472;2023-02-16T03:19:21;292.10;;;78.10;;
34035;SDS011;63481;52.588;22.472;2023-02-16T03:20:32;279.50;;;75.70;;
34035;SDS011;63481;52.588;22.472;2023-02-16T03:21:43;283.00;;;75.60;;
34035;SDS011;63481;52.588;22.472;2023-02-16T03:22:56;275.20;;;77.90;;
34035;SDS011;63481;52.588;22.472;2023-02-16T03:24:09;279.90;;;76.60;;
34035;SDS011;63481;52.588;22.472;2023-02-16T03:25:25;278.30;;;79.20;;
34035;SDS011;63481;52.588;22.472;2023-02-16T03:26:43;301.60;;;74.70;;
34035;SDS011;63481;52.588;22.472;2023-02-16T03:27:54;263.60;;;74.00;;
34035;SDS011;63481;52.588;22.472;2023-02-16T03:29:08;273.50;;;76.90;;
34035;SDS011;63481;52.588;22.472;2023-02-16T03:30:12;275.60;;;74.50;;
34035;SDS011;63481;52.588;22.472;2023-02-16T03:31:08;268.30;;;77.60;;
34035;SDS011;63481;52.588;22.472;2023-02-16T03:32:03;276.30;;;77.90;;
34035;SDS011;63481;52.588;22.472;2023-02-16T03:32:58;284.50;;;79.00;;
34035;SDS011;63481;52.588;22.472;2023-02-16T03:33:51;289.80;;;80.50;;
34035;SDS011;63481;52.588;22.472;2023-02-16T03:34:46;287.90;;;79.00;;
34035;SDS011;63481;52.588;22.472;2023-02-16T03:35:40;291.90;;;81.60;;
34035;SDS011;63481;52.588;22.472;2023-02-16T03:36:35;293.20;;;82.30;;
34035;SDS011;63481;52.588;22.472;2023-02-16T03:37:31;305.40;;;83.80;;
34035;SDS011;63481;52.588;22.472;2023-02-16T03:38:25;290.00;;;81.10;;
34035;SDS011;63481;52.588;22.472;2023-02-16T03:39:19;271.10;;;83.20;;
34035;SDS011;63481;52.588;22.472;2023-02-16T03:40:13;286.90;;;82.30;;
34035;SDS011;63481;52.588;22.472;2023-02-16T03:41:20;308.30;;;83.40;;
34035;SDS011;63481;52.588;22.472;2023-02-16T03:42:13;298.00;;;83.10;;
34035;SDS011;63481;52.588;22.472;2023-02-16T03:43:07;301.70;;;83.30;;
34035;SDS011;63481;52.588;22.472;2023-02-16T03:44:00;305.70;;;84.60;;
34035;SDS011;63481;52.588;22.472;2023-02-16T03:44:52;298.10;;;79.80;;
34035;SDS011;63481;52.588;22.472;2023-02-16T03:45:46;291.80;;;81.50;;
34035;SDS011;63481;52.588;22.472;2023-02-16T03:46:39;286.60;;;84.30;;
34035;SDS011;63481;52.588;22.472;2023-02-16T03:47:33;296.70;;;83.60;;
34035;SDS011;63481;52.588;22.472;2023-02-16T03:48:26;294.40;;;83.00;;
34035;SDS011;63481;52.588;22.472;2023-02-16T03:49:19;284.00;;;82.60;;
34035;SDS011;63481;52.588;22.472;2023-02-16T03:50:12;317.20;;;86.80;;
34035;SDS011;63481;52.588;22.472;2023-02-16T03:51:06;319.00;;;84.90;;
34035;SDS011;63481;52.588;22.472;2023-02-16T03:51:59;302.00;;;84.20;;
34035;SDS011;63481;52.588;22.472;2023-02-16T03:52:53;288.10;;;83.20;;
34035;SDS011;63481;52.588;22.472;2023-02-16T03:53:58;299.00;;;82.90;;
34035;SDS011;63481;52.588;22.472;2023-02-16T03:54:51;299.80;;;82.20;;
34035;SDS011;63481;52.588;22.472;2023-02-16T03:55:45;286.50;;;81.30;;
34035;SDS011;63481;52.588;22.472;2023-02-16T03:56:39;273.10;;;82.20;;
34035;SDS011;63481;52.588;22.472;2023-02-16T03:57:32;277.40;;;85.70;;
34035;SDS011;63481;52.588;22.472;2023-02-16T03:58:26;278.00;;;84.40;;
34035;SDS011;63481;52.588;22.472;2023-02-16T03:59:19;295.80;;;86.60;;
34035;SDS011;63481;52.588;22.472;2023-02-16T04:00:12;295.80;;;87.00;;
34035;SDS011;63481;52.588;22.472;2023-02-16T04:01:06;312.00;;;88.30;;
34035;SDS011;63481;52.588;22.472;2023-02-16T04:01:59;307.30;;;90.60;;
34035;SDS011;63481;52.588;22.472;2023-02-16T04:02:52;283.90;;;89.90;;
34035;SDS011;63481;52.588;22.472;2023-02-16T04:03:45;299.60;;;91.30;;
34035;SDS011;63481;52.588;22.472;2023-02-16T04:04:38;306.20;;;90.60;;
34035;SDS011;63481;52.588;22.472;2023-02-16T04:05:32;310.00;;;91.70;;
34035;SDS011;63481;52.588;22.472;2023-02-16T04:06:25;300.50;;;90.50;;
34035;SDS011;63481;52.588;22.472;2023-02-16T04:07:18;307.10;;;92.30;;
34035;SDS011;63481;52.588;22.472;2023-02-16T04:08:12;302.40;;;91.40;;
34035;SDS011;63481;52.588;22.472;2023-02-16T04:09:05;313.70;;;92.60;;
34035;SDS011;63481;52.588;22.472;2023-02-16T04:09:59;300.10;;;92.90;;
34035;SDS011;63481;52.588;22.472;2023-02-16T04:10:52;313.20;;;93.40;;
34035;SDS011;63481;52.588;22.472;2023-02-16T04:11:47;307.30;;;90.00;;
34035;SDS011;63481;52.588;22.472;2023-02-16T04:12:59;309.40;;;90.90;;
34035;SDS011;63481;52.588;22.472;2023-02-16T04:13:55;328.60;;;93.30;;
34035;SDS011;63481;52.588;22.472;2023-02-16T04:14:47;290.50;;;90.20;;
34035;SDS011;63481;52.588;22.472;2023-02-16T04:15:40;316.00;;;90.60;;
34035;SDS011;63481;52.588;22.472;2023-02-16T04:16:33;294.20;;;91.00;;
34035;SDS011;63481;52.588;22.472;2023-02-16T04:17:26;301.10;;;92.90;;
34035;SDS011;63481;52.588;22.472;2023-02-16T04:18:19;312.10;;;92.10;;
34035;SDS011;63481;52.588;22.472;2023-02-16T04:19:12;314.80;;;92.80;;
34035;SDS011;63481;52.588;22.472;2023-02-16T04:20:07;319.70;;;92.10;;
34035;SDS011;63481;52.588;22.472;2023-02-16T04:21:02;304.80;;;91.90;;
34035;SDS011;63481;52.588;22.472;2023-02-16T04:21:55;317.00;;;94.50;;
34035;SDS011;63481;52.588;22.472;2023-02-16T04:22:48;318.70;;;93.60;;
34035;SDS011;63481;52.588;22.472;2023-02-16T04:23:42;310.20;;;92.30;;
34035;SDS011;63481;52.588;22.472;2023-02-16T04:24:35;327.00;;;95.00;;
34035;SDS011;63481;52.588;22.472;2023-02-16T04:25:28;328.50;;;95.60;;
34035;SDS011;63481;52.588;22.472;2023-02-16T04:26:22;324.50;;;92.10;;
34035;SDS011;63481;52.588;22.472;2023-02-16T04:27:15;316.20;;;91.90;;
34035;SDS011;63481;52.588;22.472;2023-02-16T04:28:09;315.60;;;93.90;;
34035;SDS011;63481;52.588;22.472;2023-02-16T04:29:02;298.50;;;87.50;;
34035;SDS011;63481;52.588;22.472;2023-02-16T04:29:55;334.50;;;92.40;;
34035;SDS011;63481;52.588;22.472;2023-02-16T04:30:48;308.70;;;91.00;;
34035;SDS011;63481;52.588;22.472;2023-02-16T04:31:43;306.10;;;88.90;;
34035;SDS011;63481;52.588;22.472;2023-02-16T04:32:37;295.70;;;89.50;;
34035;SDS011;63481;52.588;22.472;2023-02-16T04:33:30;311.20;;;92.40;;
34035;SDS011;63481;52.588;22.472;2023-02-16T04:34:23;295.50;;;86.30;;
34035;SDS011;63481;52.588;22.472;2023-02-16T04:35:17;290.10;;;87.90;;
34035;SDS011;63481;52.588;22.472;2023-02-16T04:36:10;291.70;;;88.10;;
34035;SDS011;63481;52.588;22.472;2023-02-16T04:37:03;307.10;;;89.10;;
34035;SDS011;63481;52.588;22.472;2023-02-16T04:37:57;296.00;;;88.00;;
34035;SDS011;63481;52.588;22.472;2023-02-16T04:38:50;313.90;;;92.10;;
34035;SDS011;63481;52.588;22.472;2023-02-16T04:39:44;321.60;;;91.30;;
34035;SDS011;63481;52.588;22.472;2023-02-16T04:40:37;305.00;;;91.50;;
34035;SDS011;63481;52.588;22.472;2023-02-16T04:41:30;328.20;;;92.50;;
34035;SDS011;63481;52.588;22.472;2023-02-16T04:42:23;331.10;;;94.00;;
34035;SDS011;63481;52.588;22.472;2023-02-16T04:43:17;329.70;;;96.70;;
34035;SDS011;63481;52.588;22.472;2023-02-16T04:44:10;322.80;;;92.00;;
34035;SDS011;63481;52.588;22.472;2023-02-16T04:45:03;335.20;;;91.10;;
34035;SDS011;63481;52.588;22.472;2023-02-16T04:45:56;325.20;;;92.30;;
34035;SDS011;63481;52.588;22.472;2023-02-16T04:46:49;301.70;;;89.60;;
34035;SDS011;63481;52.588;22.472;2023-02-16T04:47:43;306.30;;;87.90;;
34035;SDS011;63481;52.588;22.472;2023-02-16T04:48:36;324.70;;;92.80;;
34035;SDS011;63481;52.588;22.472;2023-02-16T04:49:29;308.70;;;91.80;;
34035;SDS011;63481;52.588;22.472;2023-02-16T04:50:22;305.70;;;89.40;;
34035;SDS011;63481;52.588;22.472;2023-02-16T04:51:15;319.20;;;90.20;;
34035;SDS011;63481;52.588;22.472;2023-02-16T04:52:10;309.90;;;93.00;;
34035;SDS011;63481;52.588;22.472;2023-02-16T04:53:04;299.50;;;89.40;;
34035;SDS011;63481;52.588;22.472;2023-02-16T04:53:58;291.60;;;89.20;;
34035;SDS011;63481;52.588;22.472;2023-02-16T04:54:51;262.90;;;83.80;;
34035;SDS011;63481;52.588;22.472;2023-02-16T04:55:45;260.30;;;83.50;;
34035;SDS011;63481;52.588;22.472;2023-02-16T04:56:43;252.70;;;81.00;;
34035;SDS011;63481;52.588;22.472;2023-02-16T04:57:37;249.90;;;79.50;;
34035;SDS011;63481;52.588;22.472;2023-02-16T04:58:31;245.80;;;85.00;;
34035;SDS011;63481;52.588;22.472;2023-02-16T04:59:25;256.80;;;87.40;;
34035;SDS011;63481;52.588;22.472;2023-02-16T05:00:18;228.80;;;81.30;;
34035;SDS011;63481;52.588;22.472;2023-02-16T05:01:20;233.10;;;80.40;;
34035;SDS011;63481;52.588;22.472;2023-02-16T05:02:14;227.30;;;79.10;;
34035;SDS011;63481;52.588;22.472;2023-02-16T05:03:07;261.00;;;83.90;;
34035;SDS011;63481;52.588;22.472;2023-02-16T05:04:00;236.10;;;80.00;;
34035;SDS011;63481;52.588;22.472;2023-02-16T05:04:53;241.10;;;81.10;;
34035;SDS011;63481;52.588;22.472;2023-02-16T05:05:47;236.20;;;81.40;;
34035;SDS011;63481;52.588;22.472;2023-02-16T05:06:41;247.70;;;83.90;;
34035;SDS011;63481;52.588;22.472;2023-02-16T05:07:34;250.30;;;84.90;;
34035;SDS011;63481;52.588;22.472;2023-02-16T05:08:28;244.30;;;82.70;;
34035;SDS011;63481;52.588;22.472;2023-02-16T05:09:21;245.30;;;81.20;;
34035;SDS011;63481;52.588;22.472;2023-02-16T05:10:13;243.60;;;82.20;;
34035;SDS011;63481;52.588;22.472;2023-02-16T05:11:06;237.70;;;81.20;;
34035;SDS011;63481;52.588;22.472;2023-02-16T05:12:18;230.00;;;79.20;;
34035;SDS011;63481;52.588;22.472;2023-02-16T05:13:30;226.30;;;77.90;;
34035;SDS011;63481;52.588;22.472;2023-02-16T05:14:42;221.90;;;82.10;;
34035;SDS011;63481;52.588;22.472;2023-02-16T05:15:39;253.30;;;83.30;;
34035;SDS011;63481;52.588;22.472;2023-02-16T05:16:32;241.90;;;83.80;;
34035;SDS011;63481;52.588;22.472;2023-02-16T05:17:25;239.20;;;84.50;;
34035;SDS011;63481;52.588;22.472;2023-02-16T05:18:19;237.90;;;84.00;;
34035;SDS011;63481;52.588;22.472;2023-02-16T05:19:12;232.50;;;79.90;;
34035;SDS011;63481;52.588;22.472;2023-02-16T05:20:06;231.50;;;83.90;;
34035;SDS011;63481;52.588;22.472;2023-02-16T05:20:59;228.30;;;82.30;;
34035;SDS011;63481;52.588;22.472;2023-02-16T05:22:11;229.20;;;81.80;;
34035;SDS011;63481;52.588;22.472;2023-02-16T05:23:04;241.60;;;79.90;;
34035;SDS011;63481;52.588;22.472;2023-02-16T05:24:01;239.80;;;85.90;;
34035;SDS011;63481;52.588;22.472;2023-02-16T05:24:56;243.70;;;80.50;;
34035;SDS011;63481;52.588;22.472;2023-02-16T05:25:50;241.40;;;86.60;;
34035;SDS011;63481;52.588;22.472;2023-02-16T05:26:43;237.90;;;84.70;;
34035;SDS011;63481;52.588;22.472;2023-02-16T05:27:36;235.40;;;81.60;;
34035;SDS011;63481;52.588;22.472;2023-02-16T05:28:29;238.90;;;82.30;;
34035;SDS011;63481;52.588;22.472;2023-02-16T05:29:23;236.00;;;83.10;;
34035;SDS011;63481;52.588;22.472;2023-02-16T05:30:16;218.00;;;79.60;;
34035;SDS011;63481;52.588;22.472;2023-02-16T05:31:09;231.60;;;81.60;;
34035;SDS011;63481;52.588;22.472;2023-02-16T05:32:02;247.00;;;84.00;;
34035;SDS011;63481;52.588;22.472;2023-02-16T05:32:56;240.40;;;84.60;;
34035;SDS011;63481;52.588;22.472;2023-02-16T05:33:49;230.50;;;83.40;;
34035;SDS011;63481;52.588;22.472;2023-02-16T05:34:43;239.70;;;85.60;;
34035;SDS011;63481;52.588;22.472;2023-02-16T05:35:37;242.70;;;84.80;;
34035;SDS011;63481;52.588;22.472;2023-02-16T05:36:30;223.70;;;83.30;;
34035;SDS011;63481;52.588;22.472;2023-02-16T05:37:24;233.40;;;83.60;;
34035;SDS011;63481;52.588;22.472;2023-02-16T05:38:17;226.50;;;81.80;;
34035;SDS011;63481;52.588;22.472;2023-02-16T05:39:10;218.50;;;80.90;;
34035;SDS011;63481;52.588;22.472;2023-02-16T05:40:04;215.70;;;79.20;;
34035;SDS011;63481;52.588;22.472;2023-02-16T05:40:58;226.80;;;82.00;;
34035;SDS011;63481;52.588;22.472;2023-02-16T05:41:51;222.10;;;80.50;;
34035;SDS011;63481;52.588;22.472;2023-02-16T05:42:45;239.60;;;84.00;;
34035;SDS011;63481;52.588;22.472;2023-02-16T05:43:38;222.60;;;80.40;;
34035;SDS011;63481;52.588;22.472;2023-02-16T05:44:31;223.50;;;79.80;;
34035;SDS011;63481;52.588;22.472;2023-02-16T05:45:23;234.50;;;84.30;;
34035;SDS011;63481;52.588;22.472;2023-02-16T05:46:16;207.20;;;78.70;;
34035;SDS011;63481;52.588;22.472;2023-02-16T05:47:09;224.30;;;80.40;;
34035;SDS011;63481;52.588;22.472;2023-02-16T05:48:02;238.50;;;82.80;;
34035;SDS011;63481;52.588;22.472;2023-02-16T05:48:56;234.00;;;83.40;;
34035;SDS011;63481;52.588;22.472;2023-02-16T05:49:49;212.20;;;80.40;;
34035;SDS011;63481;52.588;22.472;2023-02-16T05:50:42;215.90;;;81.80;;
34035;SDS011;63481;52.588;22.472;2023-02-16T05:51:36;230.80;;;83.20;;
34035;SDS011;63481;52.588;22.472;2023-02-16T05:52:29;229.90;;;83.90;;
34035;SDS011;63481;52.588;22.472;2023-02-16T05:53:22;222.50;;;81.00;;
34035;SDS011;63481;52.588;22.472;2023-02-16T05:54:16;224.20;;;83.10;;
34035;SDS011;63481;52.588;22.472;2023-02-16T05:55:09;230.60;;;84.20;;
34035;SDS011;63481;52.588;22.472;2023-02-16T05:56:02;225.70;;;82.20;;
34035;SDS011;63481;52.588;22.472;2023-02-16T05:56:55;233.30;;;84.20;;
34035;SDS011;63481;52.588;22.472;2023-02-16T05:57:47;232.30;;;84.60;;
34035;SDS011;63481;52.588;22.472;2023-02-16T05:58:40;227.80;;;85.70;;
34035;SDS011;63481;52.588;22.472;2023-02-16T05:59:33;230.70;;;82.10;;
34035;SDS011;63481;52.588;22.472;2023-02-16T06:00:25;228.10;;;81.80;;